sensor_id;sensor_type;location;lat;lon;timestamp;P1;durP1;ratioP1;P2;durP2;ratioP2
25351;SDS011;13304;48.464;8.712;2023-06-14T00:00:51;6.38;;;3.90;;
25351;SDS011;13304;48.464;8.712;2023-06-14T00:03:18;7.85;;;3.78;;
25351;SDS011;13304;48.464;8.712;2023-06-14T00:05:44;5.07;;;3.65;;
25351;SDS011;13304;48.464;8.712;2023-06-14T00:08:11;4.47;;;3.53;;
25351;SDS011;13304;48.464;8.712;2023-06-14T00:10:37;5.22;;;3.80;;
25351;SDS011;13304;48.464;8.712;2023-06-14T00:13:06;9.10;;;4.47;;
25351;SDS011;13304;48.464;8.712;2023-06-14T00:15:32;6.57;;;3.50;;
25351;SDS011;13304;48.464;8.712;2023-06-14T00:17:58;5.78;;;3.70;;
25351;SDS011;13304;48.464;8.712;2023-06-14T00:20:27;7.33;;;3.80;;
25351;SDS011;13304;48.464;8.712;2023-06-14T00:22:54;7.85;;;4.00;;
25351;SDS011;13304;48.464;8.712;2023-06-14T00:25:23;10.00;;;3.63;;
25351;SDS011;13304;48.464;8.712;2023-06-14T00:27:50;6.78;;;3.97;;
25351;SDS011;13304;48.464;8.712;2023-06-14T00:30:17;5.93;;;3.83;;
25351;SDS011;13304;48.464;8.712;2023-06-14T00:32:43;5.95;;;3.58;;
25351;SDS011;13304;48.464;8.712;2023-06-14T00:35:09;6.03;;;3.63;;
25351;SDS011;13304;48.464;8.712;2023-06-14T00:37:35;8.65;;;4.05;;
25351;SDS011;13304;48.464;8.712;2023-06-14T00:40:02;10.90;;;4.20;;
25351;SDS011;13304;48.464;8.712;2023-06-14T00:42:29;6.93;;;3.67;;
25351;SDS011;13304;48.464;8.712;2023-06-14T00:44:55;10.25;;;4.20;;
25351;SDS011;13304;48.464;8.712;2023-06-14T00:47:21;7.85;;;3.70;;
25351;SDS011;13304;48.464;8.712;2023-06-14T00:49:47;7.70;;;3.80;;
25351;SDS011;13304;48.464;8.712;2023-06-14T00:52:16;7.07;;;3.65;;
25351;SDS011;13304;48.464;8.712;2023-06-14T00:54:42;7.95;;;3.90;;
25351;SDS011;13304;48.464;8.712;2023-06-14T00:57:08;6.60;;;3.67;;
25351;SDS011;13304;48.464;8.712;2023-06-14T00:59:36;7.10;;;3.78;;
25351;SDS011;13304;48.464;8.712;2023-06-14T01:02:13;8.27;;;3.55;;
25351;SDS011;13304;48.464;8.712;2023-06-14T01:04:40;5.88;;;3.83;;
25351;SDS011;13304;48.464;8.712;2023-06-14T01:15:35;9.10;;;3.55;;
25351;SDS011;13304;48.464;8.712;2023-06-14T01:18:03;5.97;;;3.88;;
25351;SDS011;13304;48.464;8.712;2023-06-14T01:20:31;6.50;;;3.63;;
25351;SDS011;13304;48.464;8.712;2023-06-14T01:22:58;5.90;;;3.97;;
25351;SDS011;13304;48.464;8.712;2023-06-14T01:25:24;7.45;;;3.80;;
25351;SDS011;13304;48.464;8.712;2023-06-14T01:28:01;5.25;;;3.70;;
25351;SDS011;13304;48.464;8.712;2023-06-14T01:30:29;5.93;;;4.20;;
25351;SDS011;13304;48.464;8.712;2023-06-14T01:32:58;7.70;;;3.85;;
25351;SDS011;13304;48.464;8.712;2023-06-14T01:35:24;5.68;;;3.88;;
25351;SDS011;13304;48.464;8.712;2023-06-14T01:37:50;8.43;;;4.28;;
25351;SDS011;13304;48.464;8.712;2023-06-14T01:40:17;6.18;;;4.25;;
25351;SDS011;13304;48.464;8.712;2023-06-14T01:42:45;7.05;;;4.18;;
25351;SDS011;13304;48.464;8.712;2023-06-14T01:45:12;7.72;;;4.45;;
25351;SDS011;13304;48.464;8.712;2023-06-14T01:47:39;8.25;;;4.63;;
25351;SDS011;13304;48.464;8.712;2023-06-14T01:50:06;5.38;;;3.90;;
25351;SDS011;13304;48.464;8.712;2023-06-14T01:52:32;6.10;;;3.92;;
25351;SDS011;13304;48.464;8.712;2023-06-14T01:54:58;9.90;;;4.55;;
25351;SDS011;13304;48.464;8.712;2023-06-14T01:57:28;6.30;;;4.20;;
25351;SDS011;13304;48.464;8.712;2023-06-14T01:59:54;6.70;;;4.05;;
25351;SDS011;13304;48.464;8.712;2023-06-14T02:02:20;9.15;;;4.63;;
25351;SDS011;13304;48.464;8.712;2023-06-14T02:04:46;8.63;;;4.50;;
25351;SDS011;13304;48.464;8.712;2023-06-14T02:07:12;8.13;;;4.32;;
25351;SDS011;13304;48.464;8.712;2023-06-14T02:09:39;9.07;;;4.65;;
25351;SDS011;13304;48.464;8.712;2023-06-14T02:12:08;9.10;;;4.53;;
25351;SDS011;13304;48.464;8.712;2023-06-14T02:14:35;8.20;;;4.35;;
25351;SDS011;13304;48.464;8.712;2023-06-14T02:17:01;9.05;;;4.10;;
25351;SDS011;13304;48.464;8.712;2023-06-14T02:19:27;6.97;;;3.95;;
25351;SDS011;13304;48.464;8.712;2023-06-14T02:21:52;8.13;;;3.90;;
25351;SDS011;13304;48.464;8.712;2023-06-14T02:24:18;6.90;;;4.05;;
25351;SDS011;13304;48.464;8.712;2023-06-14T02:26:44;7.35;;;3.83;;
25351;SDS011;13304;48.464;8.712;2023-06-14T02:29:09;8.02;;;4.03;;
25351;SDS011;13304;48.464;8.712;2023-06-14T02:31:37;8.52;;;3.88;;
25351;SDS011;13304;48.464;8.712;2023-06-14T02:34:03;5.90;;;4.05;;
25351;SDS011;13304;48.464;8.712;2023-06-14T02:36:30;5.50;;;4.13;;
25351;SDS011;13304;48.464;8.712;2023-06-14T02:38:56;8.43;;;4.20;;
25351;SDS011;13304;48.464;8.712;2023-06-14T02:41:25;7.32;;;3.90;;
25351;SDS011;13304;48.464;8.712;2023-06-14T02:43:52;6.95;;;3.92;;
25351;SDS011;13304;48.464;8.712;2023-06-14T02:46:18;5.55;;;3.53;;
25351;SDS011;13304;48.464;8.712;2023-06-14T02:48:44;5.78;;;4.05;;
25351;SDS011;13304;48.464;8.712;2023-06-14T02:51:10;7.70;;;3.80;;
25351;SDS011;13304;48.464;8.712;2023-06-14T02:53:37;5.78;;;4.05;;
25351;SDS011;13304;48.464;8.712;2023-06-14T02:56:03;8.65;;;4.57;;
25351;SDS011;13304;48.464;8.712;2023-06-14T02:58:29;6.85;;;4.15;;
25351;SDS011;13304;48.464;8.712;2023-06-14T03:00:55;7.63;;;4.20;;
25351;SDS011;13304;48.464;8.712;2023-06-14T03:03:21;6.20;;;4.18;;
25351;SDS011;13304;48.464;8.712;2023-06-14T03:05:49;8.25;;;3.72;;
25351;SDS011;13304;48.464;8.712;2023-06-14T03:08:16;7.13;;;4.05;;
25351;SDS011;13304;48.464;8.712;2023-06-14T03:10:46;5.90;;;3.72;;
25351;SDS011;13304;48.464;8.712;2023-06-14T03:13:13;6.40;;;4.00;;
25351;SDS011;13304;48.464;8.712;2023-06-14T03:15:39;6.30;;;3.97;;
25351;SDS011;13304;48.464;8.712;2023-06-14T03:18:10;6.03;;;3.83;;
25351;SDS011;13304;48.464;8.712;2023-06-14T03:20:37;8.15;;;4.05;;
25351;SDS011;13304;48.464;8.712;2023-06-14T03:23:03;8.02;;;4.00;;
25351;SDS011;13304;48.464;8.712;2023-06-14T03:25:31;5.55;;;3.65;;
25351;SDS011;13304;48.464;8.712;2023-06-14T03:28:01;9.23;;;3.83;;
25351;SDS011;13304;48.464;8.712;2023-06-14T03:33:49;8.77;;;4.00;;
25351;SDS011;13304;48.464;8.712;2023-06-14T03:36:15;7.63;;;4.20;;
25351;SDS011;13304;48.464;8.712;2023-06-14T03:38:41;6.85;;;3.72;;
25351;SDS011;13304;48.464;8.712;2023-06-14T03:41:06;10.02;;;4.30;;
25351;SDS011;13304;48.464;8.712;2023-06-14T03:43:32;5.60;;;3.80;;
25351;SDS011;13304;48.464;8.712;2023-06-14T03:45:58;9.40;;;3.70;;
25351;SDS011;13304;48.464;8.712;2023-06-14T03:48:24;7.07;;;3.95;;
25351;SDS011;13304;48.464;8.712;2023-06-14T03:50:50;9.68;;;3.90;;
25351;SDS011;13304;48.464;8.712;2023-06-14T03:53:16;10.88;;;4.03;;
25351;SDS011;13304;48.464;8.712;2023-06-14T03:55:41;13.45;;;4.10;;
25351;SDS011;13304;48.464;8.712;2023-06-14T03:58:07;9.88;;;4.72;;
25351;SDS011;13304;48.464;8.712;2023-06-14T04:00:33;6.43;;;4.10;;
25351;SDS011;13304;48.464;8.712;2023-06-14T04:02:59;11.40;;;4.20;;
25351;SDS011;13304;48.464;8.712;2023-06-14T04:05:24;10.05;;;4.13;;
25351;SDS011;13304;48.464;8.712;2023-06-14T04:07:51;5.60;;;4.00;;
25351;SDS011;13304;48.464;8.712;2023-06-14T04:10:17;11.70;;;4.43;;
25351;SDS011;13304;48.464;8.712;2023-06-14T04:12:43;7.55;;;4.40;;
25351;SDS011;13304;48.464;8.712;2023-06-14T04:15:08;8.00;;;4.07;;
25351;SDS011;13304;48.464;8.712;2023-06-14T04:17:35;7.20;;;4.40;;
25351;SDS011;13304;48.464;8.712;2023-06-14T04:20:02;8.82;;;4.68;;
25351;SDS011;13304;48.464;8.712;2023-06-14T04:22:33;9.80;;;4.30;;
25351;SDS011;13304;48.464;8.712;2023-06-14T04:24:59;7.65;;;4.07;;
25351;SDS011;13304;48.464;8.712;2023-06-14T04:27:25;7.32;;;4.30;;
25351;SDS011;13304;48.464;8.712;2023-06-14T04:29:53;13.45;;;4.95;;
25351;SDS011;13304;48.464;8.712;2023-06-14T04:32:27;8.02;;;4.47;;
25351;SDS011;13304;48.464;8.712;2023-06-14T04:35:15;13.95;;;4.53;;
25351;SDS011;13304;48.464;8.712;2023-06-14T04:37:42;8.13;;;4.35;;
25351;SDS011;13304;48.464;8.712;2023-06-14T04:40:08;8.68;;;4.57;;
25351;SDS011;13304;48.464;8.712;2023-06-14T04:42:35;7.65;;;4.53;;
25351;SDS011;13304;48.464;8.712;2023-06-14T04:45:02;7.22;;;4.20;;
25351;SDS011;13304;48.464;8.712;2023-06-14T04:47:27;11.75;;;4.63;;
25351;SDS011;13304;48.464;8.712;2023-06-14T04:49:55;8.02;;;4.70;;
25351;SDS011;13304;48.464;8.712;2023-06-14T04:52:25;7.40;;;4.60;;
25351;SDS011;13304;48.464;8.712;2023-06-14T04:54:51;11.32;;;4.60;;
25351;SDS011;13304;48.464;8.712;2023-06-14T04:57:19;11.02;;;4.97;;
25351;SDS011;13304;48.464;8.712;2023-06-14T04:59:47;6.75;;;4.60;;
25351;SDS011;13304;48.464;8.712;2023-06-14T05:02:13;7.68;;;4.90;;
25351;SDS011;13304;48.464;8.712;2023-06-14T05:04:40;8.50;;;4.07;;
25351;SDS011;13304;48.464;8.712;2023-06-14T05:07:08;9.15;;;4.78;;
25351;SDS011;13304;48.464;8.712;2023-06-14T05:12:01;10.18;;;4.38;;
25351;SDS011;13304;48.464;8.712;2023-06-14T05:14:27;8.70;;;4.57;;
25351;SDS011;13304;48.464;8.712;2023-06-14T05:16:53;7.18;;;4.22;;
25351;SDS011;13304;48.464;8.712;2023-06-14T05:19:19;14.80;;;4.32;;
25351;SDS011;13304;48.464;8.712;2023-06-14T05:21:46;10.43;;;4.70;;
25351;SDS011;13304;48.464;8.712;2023-06-14T05:24:12;10.65;;;4.60;;
25351;SDS011;13304;48.464;8.712;2023-06-14T05:26:39;11.25;;;4.85;;
25351;SDS011;13304;48.464;8.712;2023-06-14T05:29:04;9.38;;;4.50;;
25351;SDS011;13304;48.464;8.712;2023-06-14T05:31:30;8.13;;;4.18;;
25351;SDS011;13304;48.464;8.712;2023-06-14T05:33:56;9.13;;;4.75;;
25351;SDS011;13304;48.464;8.712;2023-06-14T05:36:22;6.97;;;4.80;;
25351;SDS011;13304;48.464;8.712;2023-06-14T05:38:48;13.52;;;4.80;;
25351;SDS011;13304;48.464;8.712;2023-06-14T05:41:14;5.90;;;4.18;;
25351;SDS011;13304;48.464;8.712;2023-06-14T05:43:40;7.97;;;4.63;;
25351;SDS011;13304;48.464;8.712;2023-06-14T05:46:05;9.35;;;4.55;;
25351;SDS011;13304;48.464;8.712;2023-06-14T05:48:31;9.27;;;4.75;;
25351;SDS011;13304;48.464;8.712;2023-06-14T05:50:57;9.30;;;4.70;;
25351;SDS011;13304;48.464;8.712;2023-06-14T05:53:23;8.18;;;4.20;;
25351;SDS011;13304;48.464;8.712;2023-06-14T05:55:49;11.02;;;4.78;;
25351;SDS011;13304;48.464;8.712;2023-06-14T05:58:19;8.07;;;4.20;;
25351;SDS011;13304;48.464;8.712;2023-06-14T06:00:46;6.28;;;4.10;;
25351;SDS011;13304;48.464;8.712;2023-06-14T06:03:12;11.05;;;3.78;;
25351;SDS011;13304;48.464;8.712;2023-06-14T06:05:38;7.22;;;4.38;;
25351;SDS011;13304;48.464;8.712;2023-06-14T06:08:04;7.07;;;4.15;;
25351;SDS011;13304;48.464;8.712;2023-06-14T06:10:31;6.70;;;4.25;;
25351;SDS011;13304;48.464;8.712;2023-06-14T06:12:57;9.85;;;4.10;;
25351;SDS011;13304;48.464;8.712;2023-06-14T06:15:22;6.65;;;4.20;;
25351;SDS011;13304;48.464;8.712;2023-06-14T06:17:48;10.63;;;4.78;;
25351;SDS011;13304;48.464;8.712;2023-06-14T06:20:14;6.13;;;3.92;;
25351;SDS011;13304;48.464;8.712;2023-06-14T06:22:41;6.32;;;4.28;;
25351;SDS011;13304;48.464;8.712;2023-06-14T06:25:06;6.70;;;4.03;;
25351;SDS011;13304;48.464;8.712;2023-06-14T06:27:34;10.10;;;4.18;;
25351;SDS011;13304;48.464;8.712;2023-06-14T06:30:02;8.98;;;3.97;;
25351;SDS011;13304;48.464;8.712;2023-06-14T06:32:28;5.95;;;4.15;;
25351;SDS011;13304;48.464;8.712;2023-06-14T06:34:54;8.23;;;4.20;;
25351;SDS011;13304;48.464;8.712;2023-06-14T06:37:20;10.48;;;3.95;;
25351;SDS011;13304;48.464;8.712;2023-06-14T06:39:45;8.75;;;4.05;;
25351;SDS011;13304;48.464;8.712;2023-06-14T06:42:12;8.35;;;3.97;;
25351;SDS011;13304;48.464;8.712;2023-06-14T06:44:37;8.73;;;3.97;;
25351;SDS011;13304;48.464;8.712;2023-06-14T06:47:03;6.80;;;4.18;;
25351;SDS011;13304;48.464;8.712;2023-06-14T06:49:29;15.75;;;4.25;;
25351;SDS011;13304;48.464;8.712;2023-06-14T06:52:02;8.07;;;4.70;;
25351;SDS011;13304;48.464;8.712;2023-06-14T06:54:32;7.97;;;4.03;;
25351;SDS011;13304;48.464;8.712;2023-06-14T06:56:58;9.32;;;4.00;;
25351;SDS011;13304;48.464;8.712;2023-06-14T06:59:25;9.60;;;4.18;;
25351;SDS011;13304;48.464;8.712;2023-06-14T07:01:51;9.55;;;3.90;;
25351;SDS011;13304;48.464;8.712;2023-06-14T07:04:17;12.18;;;4.47;;
25351;SDS011;13304;48.464;8.712;2023-06-14T07:06:43;7.25;;;4.30;;
25351;SDS011;13304;48.464;8.712;2023-06-14T07:09:12;8.15;;;3.83;;
25351;SDS011;13304;48.464;8.712;2023-06-14T07:11:39;10.55;;;4.18;;
25351;SDS011;13304;48.464;8.712;2023-06-14T07:14:05;10.45;;;3.78;;
25351;SDS011;13304;48.464;8.712;2023-06-14T07:16:31;9.55;;;4.53;;
25351;SDS011;13304;48.464;8.712;2023-06-14T07:18:57;12.32;;;4.20;;
25351;SDS011;13304;48.464;8.712;2023-06-14T07:21:23;11.10;;;4.57;;
25351;SDS011;13304;48.464;8.712;2023-06-14T07:23:50;9.85;;;4.60;;
25351;SDS011;13304;48.464;8.712;2023-06-14T07:26:17;7.53;;;4.00;;
25351;SDS011;13304;48.464;8.712;2023-06-14T07:28:43;10.73;;;3.90;;
25351;SDS011;13304;48.464;8.712;2023-06-14T07:31:11;18.45;;;4.43;;
25351;SDS011;13304;48.464;8.712;2023-06-14T07:33:38;9.52;;;3.78;;
25351;SDS011;13304;48.464;8.712;2023-06-14T07:36:03;11.45;;;4.30;;
25351;SDS011;13304;48.464;8.712;2023-06-14T07:38:29;11.55;;;4.32;;
25351;SDS011;13304;48.464;8.712;2023-06-14T07:40:55;9.93;;;4.10;;
25351;SDS011;13304;48.464;8.712;2023-06-14T07:43:21;8.30;;;4.30;;
25351;SDS011;13304;48.464;8.712;2023-06-14T07:45:46;10.57;;;3.70;;
25351;SDS011;13304;48.464;8.712;2023-06-14T07:48:12;7.53;;;3.83;;
25351;SDS011;13304;48.464;8.712;2023-06-14T07:50:38;7.03;;;3.85;;
25351;SDS011;13304;48.464;8.712;2023-06-14T07:53:04;6.03;;;3.53;;
25351;SDS011;13304;48.464;8.712;2023-06-14T07:55:29;7.70;;;3.80;;
25351;SDS011;13304;48.464;8.712;2023-06-14T07:57:58;10.88;;;3.80;;
25351;SDS011;13304;48.464;8.712;2023-06-14T08:00:23;5.40;;;3.60;;
25351;SDS011;13304;48.464;8.712;2023-06-14T08:02:49;6.82;;;3.80;;
25351;SDS011;13304;48.464;8.712;2023-06-14T08:05:17;9.20;;;3.65;;
25351;SDS011;13304;48.464;8.712;2023-06-14T08:07:43;10.68;;;3.67;;
25351;SDS011;13304;48.464;8.712;2023-06-14T08:10:08;5.85;;;3.28;;
25351;SDS011;13304;48.464;8.712;2023-06-14T08:12:34;11.52;;;4.18;;
25351;SDS011;13304;48.464;8.712;2023-06-14T08:15:01;6.70;;;3.45;;
25351;SDS011;13304;48.464;8.712;2023-06-14T08:17:27;6.97;;;3.75;;
25351;SDS011;13304;48.464;8.712;2023-06-14T08:19:53;5.78;;;3.38;;
25351;SDS011;13304;48.464;8.712;2023-06-14T08:22:22;5.88;;;3.55;;
25351;SDS011;13304;48.464;8.712;2023-06-14T08:24:49;7.50;;;4.00;;
25351;SDS011;13304;48.464;8.712;2023-06-14T08:27:16;9.82;;;4.22;;
25351;SDS011;13304;48.464;8.712;2023-06-14T08:29:41;8.77;;;3.72;;
25351;SDS011;13304;48.464;8.712;2023-06-14T08:32:08;8.55;;;3.75;;
25351;SDS011;13304;48.464;8.712;2023-06-14T08:34:34;9.48;;;4.28;;
25351;SDS011;13304;48.464;8.712;2023-06-14T08:37:00;6.85;;;3.70;;
25351;SDS011;13304;48.464;8.712;2023-06-14T08:39:26;6.13;;;3.30;;
25351;SDS011;13304;48.464;8.712;2023-06-14T08:41:52;7.88;;;3.80;;
25351;SDS011;13304;48.464;8.712;2023-06-14T08:44:19;6.97;;;3.95;;
25351;SDS011;13304;48.464;8.712;2023-06-14T08:46:45;12.23;;;3.90;;
25351;SDS011;13304;48.464;8.712;2023-06-14T08:49:13;9.98;;;3.63;;
25351;SDS011;13304;48.464;8.712;2023-06-14T08:51:41;4.95;;;3.72;;
25351;SDS011;13304;48.464;8.712;2023-06-14T08:54:09;8.77;;;3.80;;
25351;SDS011;13304;48.464;8.712;2023-06-14T08:56:37;12.45;;;4.05;;
25351;SDS011;13304;48.464;8.712;2023-06-14T08:59:03;6.97;;;3.70;;
25351;SDS011;13304;48.464;8.712;2023-06-14T09:01:34;7.93;;;3.47;;
25351;SDS011;13304;48.464;8.712;2023-06-14T09:04:02;6.20;;;3.88;;
25351;SDS011;13304;48.464;8.712;2023-06-14T09:06:30;7.60;;;4.20;;
25351;SDS011;13304;48.464;8.712;2023-06-14T09:08:58;5.25;;;3.72;;
25351;SDS011;13304;48.464;8.712;2023-06-14T09:11:23;7.38;;;3.90;;
25351;SDS011;13304;48.464;8.712;2023-06-14T09:13:51;4.90;;;3.63;;
25351;SDS011;13304;48.464;8.712;2023-06-14T09:16:17;6.75;;;4.15;;
25351;SDS011;13304;48.464;8.712;2023-06-14T09:18:44;4.53;;;3.35;;
25351;SDS011;13304;48.464;8.712;2023-06-14T09:21:13;8.23;;;3.22;;
25351;SDS011;13304;48.464;8.712;2023-06-14T09:23:41;7.70;;;3.70;;
25351;SDS011;13304;48.464;8.712;2023-06-14T09:26:13;12.70;;;4.10;;
25351;SDS011;13304;48.464;8.712;2023-06-14T09:28:41;4.88;;;3.30;;
25351;SDS011;13304;48.464;8.712;2023-06-14T09:31:08;9.02;;;3.53;;
25351;SDS011;13304;48.464;8.712;2023-06-14T09:33:41;6.88;;;3.72;;
25351;SDS011;13304;48.464;8.712;2023-06-14T09:36:15;6.40;;;3.35;;
25351;SDS011;13304;48.464;8.712;2023-06-14T09:38:56;10.70;;;3.58;;
25351;SDS011;13304;48.464;8.712;2023-06-14T09:41:36;11.13;;;3.40;;
25351;SDS011;13304;48.464;8.712;2023-06-14T09:44:05;5.38;;;3.50;;
25351;SDS011;13304;48.464;8.712;2023-06-14T09:46:33;9.02;;;3.88;;
25351;SDS011;13304;48.464;8.712;2023-06-14T09:49:01;5.00;;;3.35;;
25351;SDS011;13304;48.464;8.712;2023-06-14T09:51:27;10.73;;;3.47;;
25351;SDS011;13304;48.464;8.712;2023-06-14T09:54:00;6.85;;;3.38;;
25351;SDS011;13304;48.464;8.712;2023-06-14T09:56:30;6.88;;;3.47;;
25351;SDS011;13304;48.464;8.712;2023-06-14T09:58:59;6.05;;;3.88;;
25351;SDS011;13304;48.464;8.712;2023-06-14T10:01:30;7.57;;;3.80;;
25351;SDS011;13304;48.464;8.712;2023-06-14T10:06:28;4.63;;;3.20;;
25351;SDS011;13304;48.464;8.712;2023-06-14T10:08:58;6.68;;;3.90;;
25351;SDS011;13304;48.464;8.712;2023-06-14T10:11:28;3.90;;;3.35;;
25351;SDS011;13304;48.464;8.712;2023-06-14T10:13:54;7.43;;;3.72;;
25351;SDS011;13304;48.464;8.712;2023-06-14T10:22:17;6.43;;;3.75;;
25351;SDS011;13304;48.464;8.712;2023-06-14T10:24:50;7.47;;;4.38;;
25351;SDS011;13304;48.464;8.712;2023-06-14T10:27:16;7.90;;;4.00;;
25351;SDS011;13304;48.464;8.712;2023-06-14T10:32:18;4.95;;;3.92;;
25351;SDS011;13304;48.464;8.712;2023-06-14T10:34:45;5.30;;;3.58;;
25351;SDS011;13304;48.464;8.712;2023-06-14T10:37:18;6.05;;;3.33;;
25351;SDS011;13304;48.464;8.712;2023-06-14T10:39:44;6.57;;;3.47;;
25351;SDS011;13304;48.464;8.712;2023-06-14T10:42:14;10.55;;;4.28;;
25351;SDS011;13304;48.464;8.712;2023-06-14T10:44:44;6.97;;;4.25;;
25351;SDS011;13304;48.464;8.712;2023-06-14T10:47:30;8.20;;;3.90;;
25351;SDS011;13304;48.464;8.712;2023-06-14T10:50:04;5.88;;;3.75;;
25351;SDS011;13304;48.464;8.712;2023-06-14T10:52:37;9.07;;;4.25;;
25351;SDS011;13304;48.464;8.712;2023-06-14T10:55:05;6.43;;;3.35;;
25351;SDS011;13304;48.464;8.712;2023-06-14T10:57:38;4.75;;;3.50;;
25351;SDS011;13304;48.464;8.712;2023-06-14T11:00:06;5.40;;;3.90;;
25351;SDS011;13304;48.464;8.712;2023-06-14T11:05:26;6.95;;;4.10;;
25351;SDS011;13304;48.464;8.712;2023-06-14T11:08:07;8.18;;;3.40;;
25351;SDS011;13304;48.464;8.712;2023-06-14T11:10:38;7.55;;;3.65;;
25351;SDS011;13304;48.464;8.712;2023-06-14T11:13:08;8.45;;;4.18;;
25351;SDS011;13304;48.464;8.712;2023-06-14T11:15:35;7.60;;;4.18;;
25351;SDS011;13304;48.464;8.712;2023-06-14T11:18:08;7.07;;;3.83;;
25351;SDS011;13304;48.464;8.712;2023-06-14T11:20:35;7.07;;;3.70;;
25351;SDS011;13304;48.464;8.712;2023-06-14T11:23:02;10.00;;;3.75;;
25351;SDS011;13304;48.464;8.712;2023-06-14T11:25:28;4.45;;;3.72;;
25351;SDS011;13304;48.464;8.712;2023-06-14T11:27:54;10.15;;;3.53;;
25351;SDS011;13304;48.464;8.712;2023-06-14T11:30:21;8.45;;;3.95;;
25351;SDS011;13304;48.464;8.712;2023-06-14T11:32:47;10.35;;;3.70;;
25351;SDS011;13304;48.464;8.712;2023-06-14T11:35:15;4.95;;;3.67;;
25351;SDS011;13304;48.464;8.712;2023-06-14T11:37:41;5.47;;;3.80;;
25351;SDS011;13304;48.464;8.712;2023-06-14T11:40:07;9.30;;;4.05;;
25351;SDS011;13304;48.464;8.712;2023-06-14T11:42:35;7.22;;;4.03;;
25351;SDS011;13304;48.464;8.712;2023-06-14T11:45:02;7.57;;;3.85;;
25351;SDS011;13304;48.464;8.712;2023-06-14T11:47:33;5.43;;;3.50;;
25351;SDS011;13304;48.464;8.712;2023-06-14T11:50:00;7.90;;;4.30;;
25351;SDS011;13304;48.464;8.712;2023-06-14T11:52:26;11.52;;;3.70;;
25351;SDS011;13304;48.464;8.712;2023-06-14T11:54:53;6.28;;;3.88;;
25351;SDS011;13304;48.464;8.712;2023-06-14T11:57:19;5.25;;;3.63;;
25351;SDS011;13304;48.464;8.712;2023-06-14T11:59:45;6.70;;;3.60;;
25351;SDS011;13304;48.464;8.712;2023-06-14T12:02:15;4.80;;;3.58;;
25351;SDS011;13304;48.464;8.712;2023-06-14T12:04:42;6.03;;;3.78;;
25351;SDS011;13304;48.464;8.712;2023-06-14T12:07:14;8.00;;;3.75;;
25351;SDS011;13304;48.464;8.712;2023-06-14T12:10:03;6.07;;;3.67;;
25351;SDS011;13304;48.464;8.712;2023-06-14T12:12:34;6.78;;;3.63;;
25351;SDS011;13304;48.464;8.712;2023-06-14T12:15:05;10.10;;;3.67;;
25351;SDS011;13304;48.464;8.712;2023-06-14T12:17:33;8.20;;;3.67;;
25351;SDS011;13304;48.464;8.712;2023-06-14T12:20:04;7.85;;;3.47;;
25351;SDS011;13304;48.464;8.712;2023-06-14T12:22:34;4.78;;;3.45;;
25351;SDS011;13304;48.464;8.712;2023-06-14T12:24:59;10.23;;;3.72;;
25351;SDS011;13304;48.464;8.712;2023-06-14T12:27:25;9.65;;;3.92;;
25351;SDS011;13304;48.464;8.712;2023-06-14T12:30:00;4.43;;;3.70;;
25351;SDS011;13304;48.464;8.712;2023-06-14T12:32:28;9.88;;;3.85;;
25351;SDS011;13304;48.464;8.712;2023-06-14T12:34:55;5.65;;;3.88;;
25351;SDS011;13304;48.464;8.712;2023-06-14T12:37:21;5.88;;;3.30;;
25351;SDS011;13304;48.464;8.712;2023-06-14T12:39:46;6.72;;;3.60;;
25351;SDS011;13304;48.464;8.712;2023-06-14T12:42:12;8.45;;;3.90;;
25351;SDS011;13304;48.464;8.712;2023-06-14T12:44:39;7.65;;;3.13;;
25351;SDS011;13304;48.464;8.712;2023-06-14T12:47:06;5.75;;;3.80;;
25351;SDS011;13304;48.464;8.712;2023-06-14T12:49:32;8.02;;;3.72;;
25351;SDS011;13304;48.464;8.712;2023-06-14T12:51:58;7.03;;;3.67;;
25351;SDS011;13304;48.464;8.712;2023-06-14T12:54:24;3.95;;;3.33;;
25351;SDS011;13304;48.464;8.712;2023-06-14T12:56:53;6.82;;;3.58;;
25351;SDS011;13304;48.464;8.712;2023-06-14T12:59:20;6.57;;;3.42;;
25351;SDS011;13304;48.464;8.712;2023-06-14T13:01:45;7.00;;;3.42;;
25351;SDS011;13304;48.464;8.712;2023-06-14T13:04:14;6.03;;;3.80;;
25351;SDS011;13304;48.464;8.712;2023-06-14T13:06:40;6.70;;;3.65;;
25351;SDS011;13304;48.464;8.712;2023-06-14T13:09:06;7.13;;;3.70;;
25351;SDS011;13304;48.464;8.712;2023-06-14T13:11:33;3.95;;;3.13;;
25351;SDS011;13304;48.464;8.712;2023-06-14T13:13:59;6.38;;;3.50;;
25351;SDS011;13304;48.464;8.712;2023-06-14T13:16:24;9.00;;;3.60;;
25351;SDS011;13304;48.464;8.712;2023-06-14T13:18:50;9.82;;;3.13;;
25351;SDS011;13304;48.464;8.712;2023-06-14T13:21:16;7.78;;;3.60;;
25351;SDS011;13304;48.464;8.712;2023-06-14T13:23:41;7.78;;;3.50;;
25351;SDS011;13304;48.464;8.712;2023-06-14T13:26:07;4.82;;;3.47;;
25351;SDS011;13304;48.464;8.712;2023-06-14T13:28:33;7.45;;;3.72;;
25351;SDS011;13304;48.464;8.712;2023-06-14T13:31:00;4.70;;;3.40;;
25351;SDS011;13304;48.464;8.712;2023-06-14T13:33:27;8.27;;;3.55;;
25351;SDS011;13304;48.464;8.712;2023-06-14T13:35:52;5.97;;;3.35;;
25351;SDS011;13304;48.464;8.712;2023-06-14T13:38:18;6.97;;;3.60;;
25351;SDS011;13304;48.464;8.712;2023-06-14T13:40:44;8.88;;;3.72;;
25351;SDS011;13304;48.464;8.712;2023-06-14T13:43:10;10.55;;;3.95;;
25351;SDS011;13304;48.464;8.712;2023-06-14T13:45:36;13.15;;;3.53;;
25351;SDS011;13304;48.464;8.712;2023-06-14T13:48:01;6.90;;;3.38;;
25351;SDS011;13304;48.464;8.712;2023-06-14T13:50:27;7.22;;;3.13;;
25351;SDS011;13304;48.464;8.712;2023-06-14T13:52:53;9.00;;;4.03;;
25351;SDS011;13304;48.464;8.712;2023-06-14T13:55:19;5.18;;;3.10;;
25351;SDS011;13304;48.464;8.712;2023-06-14T13:57:44;6.03;;;3.38;;
25351;SDS011;13304;48.464;8.712;2023-06-14T14:00:10;6.97;;;3.55;;
25351;SDS011;13304;48.464;8.712;2023-06-14T14:02:37;4.10;;;3.03;;
25351;SDS011;13304;48.464;8.712;2023-06-14T14:05:03;4.30;;;3.33;;
25351;SDS011;13304;48.464;8.712;2023-06-14T14:07:29;6.82;;;3.40;;
25351;SDS011;13304;48.464;8.712;2023-06-14T14:09:55;11.13;;;3.28;;
25351;SDS011;13304;48.464;8.712;2023-06-14T14:12:22;7.45;;;2.97;;
25351;SDS011;13304;48.464;8.712;2023-06-14T14:14:48;10.05;;;3.60;;
25351;SDS011;13304;48.464;8.712;2023-06-14T14:17:15;4.25;;;3.30;;
25351;SDS011;13304;48.464;8.712;2023-06-14T14:19:41;7.53;;;3.72;;
25351;SDS011;13304;48.464;8.712;2023-06-14T14:22:06;6.60;;;3.38;;
25351;SDS011;13304;48.464;8.712;2023-06-14T14:24:32;5.95;;;3.42;;
25351;SDS011;13304;48.464;8.712;2023-06-14T14:26:58;6.78;;;3.92;;
25351;SDS011;13304;48.464;8.712;2023-06-14T14:29:25;6.13;;;3.15;;
25351;SDS011;13304;48.464;8.712;2023-06-14T14:31:54;7.05;;;3.03;;
25351;SDS011;13304;48.464;8.712;2023-06-14T14:34:21;9.13;;;3.33;;
25351;SDS011;13304;48.464;8.712;2023-06-14T14:36:48;5.78;;;3.25;;
25351;SDS011;13304;48.464;8.712;2023-06-14T14:39:14;5.10;;;3.40;;
25351;SDS011;13304;48.464;8.712;2023-06-14T14:41:40;8.05;;;3.40;;
25351;SDS011;13304;48.464;8.712;2023-06-14T14:44:06;7.57;;;3.17;;
25351;SDS011;13304;48.464;8.712;2023-06-14T14:46:32;5.72;;;2.90;;
25351;SDS011;13304;48.464;8.712;2023-06-14T14:48:58;7.25;;;3.20;;
25351;SDS011;13304;48.464;8.712;2023-06-14T14:51:25;5.47;;;3.38;;
25351;SDS011;13304;48.464;8.712;2023-06-14T14:53:51;4.82;;;3.30;;
25351;SDS011;13304;48.464;8.712;2023-06-14T14:56:16;7.90;;;3.45;;
25351;SDS011;13304;48.464;8.712;2023-06-14T14:58:42;11.40;;;3.35;;
25351;SDS011;13304;48.464;8.712;2023-06-14T15:01:09;6.32;;;3.10;;
25351;SDS011;13304;48.464;8.712;2023-06-14T15:03:35;5.82;;;3.15;;
25351;SDS011;13304;48.464;8.712;2023-06-14T15:06:01;6.28;;;3.30;;
25351;SDS011;13304;48.464;8.712;2023-06-14T15:08:27;8.60;;;3.33;;
25351;SDS011;13304;48.464;8.712;2023-06-14T15:10:52;9.38;;;3.13;;
25351;SDS011;13304;48.464;8.712;2023-06-14T15:13:18;4.50;;;3.22;;